Time;durP1;ratioP1;P1;durP2;ratioP2;P2;SDS_P1;SDS_P2;PMS_P1;PMS_P2;Temp;Humidity;BMP_temperature;BMP_pressure;BME280_temperature;BME280_humidity;BME280_pressure;Samples;Min_cycle;Max_cycle;Signal;HPM_P1;HPM_P2
2021/10/24 00:00:58;;;;;;;8.80;5.75;;;;;;;;;;5031275;28;20182;-78
2021/10/24 00:03:24;;;;;;;7.75;5.80;;;;;;;;;;5031650;28;20273;-77
2021/10/24 00:05:51;;;;;;;11.80;6.97;;;;;;;;;;5032867;28;20248;-77
2021/10/24 00:08:17;;;;;;;7.22;5.63;;;;;;;;;;5031613;28;20421;-77
2021/10/24 00:10:43;;;;;;;8.70;6.03;;;;;;;;;;5031719;28;20188;-77
2021/10/24 00:13:09;;;;;;;11.48;5.50;;;;;;;;;;5032508;28;20619;-77
2021/10/24 00:15:35;;;;;;;8.95;6.15;;;;;;;;;;5032935;28;20213;-78
2021/10/24 00:18:02;;;;;;;8.65;6.78;;;;;;;;;;5031471;28;20273;-77
2021/10/24 00:20:27;;;;;;;10.90;7.32;;;;;;;;;;5032814;28;20174;-77
2021/10/24 00:22:53;;;;;;;16.70;6.43;;;;;;;;;;5032541;28;20552;-79
2021/10/24 00:25:19;;;;;;;10.27;5.60;;;;;;;;;;5032793;28;20404;-78
2021/10/24 00:27:45;;;;;;;7.88;6.13;;;;;;;;;;5032710;28;20500;-78
2021/10/24 00:30:11;;;;;;;12.10;6.17;;;;;;;;;;5032612;28;20181;-77
2021/10/24 00:32:37;;;;;;;7.68;6.13;;;;;;;;;;5030971;28;20460;-77
2021/10/24 00:35:04;;;;;;;21.65;6.63;;;;;;;;;;5032667;28;20182;-79
2021/10/24 00:37:30;;;;;;;7.80;6.10;;;;;;;;;;5032714;28;20305;-78
2021/10/24 00:39:56;;;;;;;9.63;6.57;;;;;;;;;;5032717;28;20653;-77
2021/10/24 00:42:22;;;;;;;11.97;6.90;;;;;;;;;;5030812;28;20468;-78
2021/10/24 00:44:48;;;;;;;9.73;6.82;;;;;;;;;;5032707;28;20415;-77
2021/10/24 00:47:14;;;;;;;8.80;6.72;;;;;;;;;;5032604;28;20182;-79
2021/10/24 00:49:40;;;;;;;9.27;7.00;;;;;;;;;;5032655;28;20186;-78
2021/10/24 00:52:06;;;;;;;10.32;6.60;;;;;;;;;;5032184;28;20499;-76
2021/10/24 00:54:33;;;;;;;14.38;7.03;;;;;;;;;;5032400;28;20170;-77
2021/10/24 00:57:01;;;;;;;14.18;6.63;;;;;;;;;;5032816;28;20579;-77
2021/10/24 00:59:27;;;;;;;10.07;5.95;;;;;;;;;;5032550;28;20182;-79
2021/10/24 01:01:53;;;;;;;16.05;6.72;;;;;;;;;;5014298;28;20205;-79
2021/10/24 01:04:20;;;;;;;8.20;5.72;;;;;;;;;;5032259;28;20185;-78
2021/10/24 01:06:46;;;;;;;10.90;5.85;;;;;;;;;;5032336;28;20174;-80
2021/10/24 01:09:16;;;;;;;13.18;6.30;;;;;;;;;;5035749;28;20174;-78
2021/10/24 01:11:43;;;;;;;12.07;7.43;;;;;;;;;;5035480;28;20198;-77
2021/10/24 01:14:10;;;;;;;10.15;5.78;;;;;;;;;;5035894;28;20220;-78
2021/10/24 01:16:36;;;;;;;8.45;6.10;;;;;;;;;;5035630;28;20217;-77
2021/10/24 01:19:06;;;;;;;12.60;6.30;;;;;;;;;;5035691;28;20198;-77
2021/10/24 01:21:32;;;;;;;9.75;6.72;;;;;;;;;;5035354;28;20229;-77
2021/10/24 01:23:58;;;;;;;13.80;6.10;;;;;;;;;;5034472;28;20181;-77
2021/10/24 01:26:26;;;;;;;7.10;5.93;;;;;;;;;;5034403;28;20614;-77
2021/10/24 01:28:53;;;;;;;9.18;6.28;;;;;;;;;;5018146;28;20177;-79
2021/10/24 01:31:19;;;;;;;9.50;6.50;;;;;;;;;;5033930;28;20192;-79
2021/10/24 01:33:45;;;;;;;9.55;6.22;;;;;;;;;;5035483;28;20184;-78
2021/10/24 01:36:12;;;;;;;7.73;5.60;;;;;;;;;;5035700;28;20180;-77
2021/10/24 01:38:42;;;;;;;8.82;6.18;;;;;;;;;;5035656;28;20408;-79
2021/10/24 01:41:09;;;;;;;8.40;6.15;;;;;;;;;;5035350;28;20189;-78
2021/10/24 01:43:35;;;;;;;6.30;5.40;;;;;;;;;;5035795;28;20196;-76
2021/10/24 01:46:01;;;;;;;8.88;6.90;;;;;;;;;;5035504;28;20188;-77
2021/10/24 01:48:28;;;;;;;12.75;6.93;;;;;;;;;;5034393;28;20509;-76
2021/10/24 01:50:54;;;;;;;15.77;7.20;;;;;;;;;;5035144;28;20209;-76
2021/10/24 01:53:30;;;;;;;10.55;5.93;;;;;;;;;;5034123;28;20190;-79
2021/10/24 01:55:57;;;;;;;11.25;6.07;;;;;;;;;;5035205;28;20174;-77
2021/10/24 01:58:23;;;;;;;13.27;6.53;;;;;;;;;;5033892;28;20202;-78
2021/10/24 02:00:50;;;;;;;8.63;5.57;;;;;;;;;;5034876;28;20203;-79
2021/10/24 02:03:16;;;;;;;7.22;5.45;;;;;;;;;;5034697;28;20588;-78
2021/10/24 02:05:42;;;;;;;10.13;6.65;;;;;;;;;;5017472;28;20563;-79
2021/10/24 02:08:09;;;;;;;10.13;6.05;;;;;;;;;;5034958;28;20723;-80
2021/10/24 02:10:36;;;;;;;10.27;6.38;;;;;;;;;;5034872;28;20251;-78
2021/10/24 02:13:02;;;;;;;10.25;6.78;;;;;;;;;;5016680;28;20202;-79
2021/10/24 02:15:28;;;;;;;8.98;7.05;;;;;;;;;;5033589;28;20221;-77
2021/10/24 02:17:54;;;;;;;9.00;7.70;;;;;;;;;;5034570;28;20228;-78
2021/10/24 02:20:20;;;;;;;12.60;7.93;;;;;;;;;;5032854;28;20464;-79
2021/10/24 02:22:46;;;;;;;9.90;7.13;;;;;;;;;;5032951;28;20222;-79
2021/10/24 02:25:12;;;;;;;12.80;7.43;;;;;;;;;;5034583;28;20178;-79
2021/10/24 02:27:38;;;;;;;11.00;7.82;;;;;;;;;;5033346;28;20182;-78
2021/10/24 02:30:05;;;;;;;11.20;8.13;;;;;;;;;;5033442;28;20494;-79
2021/10/24 02:32:31;;;;;;;17.35;8.85;;;;;;;;;;5034371;28;20805;-79
2021/10/24 02:34:57;;;;;;;14.50;8.32;;;;;;;;;;5034602;28;20259;-78
2021/10/24 02:37:23;;;;;;;17.70;8.85;;;;;;;;;;5033107;28;20180;-79
2021/10/24 02:39:49;;;;;;;15.48;8.43;;;;;;;;;;5033140;28;20317;-79
2021/10/24 02:42:15;;;;;;;11.95;8.68;;;;;;;;;;5032746;28;20304;-79
2021/10/24 02:44:44;;;;;;;13.95;7.85;;;;;;;;;;5033231;28;20254;-79
2021/10/24 02:47:10;;;;;;;14.07;7.60;;;;;;;;;;5034119;28;20639;-79
2021/10/24 02:49:36;;;;;;;10.25;8.23;;;;;;;;;;5032853;28;20191;-79
2021/10/24 02:52:02;;;;;;;10.70;8.10;;;;;;;;;;5016692;28;20199;-81
2021/10/24 02:54:28;;;;;;;16.35;8.15;;;;;;;;;;5032993;28;20194;-78
2021/10/24 02:56:55;;;;;;;20.92;7.72;;;;;;;;;;5034308;28;20182;-79
2021/10/24 02:59:21;;;;;;;11.38;8.57;;;;;;;;;;5032885;28;20190;-79
2021/10/24 03:01:48;;;;;;;19.17;9.45;;;;;;;;;;5015835;28;20316;-78
2021/10/24 03:04:14;;;;;;;11.18;8.60;;;;;;;;;;5032596;28;20178;-79
2021/10/24 03:06:41;;;;;;;13.40;9.52;;;;;;;;;;5032661;28;20315;-79
2021/10/24 03:09:07;;;;;;;11.35;7.93;;;;;;;;;;5016178;28;20185;-80
2021/10/24 03:11:33;;;;;;;12.90;9.00;;;;;;;;;;5033237;28;20266;-78
2021/10/24 03:13:59;;;;;;;17.00;9.25;;;;;;;;;;5032531;28;20186;-79
2021/10/24 03:16:25;;;;;;;16.48;9.95;;;;;;;;;;5032470;28;20191;-78
2021/10/24 03:18:52;;;;;;;16.00;9.85;;;;;;;;;;5033424;28;20204;-79
2021/10/24 03:21:18;;;;;;;13.80;9.68;;;;;;;;;;5033107;28;20205;-79
2021/10/24 03:23:47;;;;;;;14.20;9.43;;;;;;;;;;5015962;28;20189;-78
2021/10/24 03:26:13;;;;;;;11.55;9.60;;;;;;;;;;5032183;28;20450;-78
2021/10/24 03:28:39;;;;;;;14.85;9.50;;;;;;;;;;5033549;28;20219;-78
2021/10/24 03:31:05;;;;;;;16.48;10.25;;;;;;;;;;5031701;28;20275;-78
2021/10/24 03:33:31;;;;;;;15.80;9.57;;;;;;;;;;5033365;28;20178;-77
2021/10/24 03:35:57;;;;;;;17.17;10.30;;;;;;;;;;5033260;28;20256;-78
2021/10/24 03:38:23;;;;;;;16.60;10.30;;;;;;;;;;5033368;28;20684;-78
2021/10/24 03:40:49;;;;;;;14.30;9.75;;;;;;;;;;5033240;28;20269;-79
2021/10/24 03:43:15;;;;;;;22.30;10.73;;;;;;;;;;5031804;28;20222;-78
2021/10/24 03:45:42;;;;;;;12.10;9.82;;;;;;;;;;5031877;28;20829;-79
2021/10/24 03:48:08;;;;;;;25.33;12.88;;;;;;;;;;5033428;28;20243;-79
2021/10/24 03:50:34;;;;;;;15.20;10.45;;;;;;;;;;5033361;28;20181;-76
2021/10/24 03:53:00;;;;;;;18.73;10.57;;;;;;;;;;5032736;28;20208;-78
2021/10/24 03:55:26;;;;;;;14.25;9.90;;;;;;;;;;5032033;28;20183;-78
2021/10/24 03:57:52;;;;;;;15.60;10.75;;;;;;;;;;5033106;28;20669;-79
2021/10/24 04:00:18;;;;;;;15.07;9.60;;;;;;;;;;5033104;28;20268;-78
2021/10/24 04:02:51;;;;;;;15.43;10.63;;;;;;;;;;5031426;28;20476;-78
2021/10/24 04:05:18;;;;;;;22.77;10.93;;;;;;;;;;5033035;28;20181;-77
2021/10/24 04:07:44;;;;;;;20.08;9.95;;;;;;;;;;5031514;28;20184;-79
2021/10/24 04:10:10;;;;;;;16.10;9.70;;;;;;;;;;5031595;28;20169;-78
2021/10/24 04:12:36;;;;;;;20.92;9.40;;;;;;;;;;5032520;28;20206;-78
2021/10/24 04:15:02;;;;;;;12.20;10.00;;;;;;;;;;5031671;28;20564;-80
2021/10/24 04:17:28;;;;;;;13.68;9.57;;;;;;;;;;5032699;28;20251;-78
2021/10/24 04:19:54;;;;;;;20.98;10.13;;;;;;;;;;5031448;28;20650;-79
2021/10/24 04:22:20;;;;;;;16.13;9.93;;;;;;;;;;5032379;28;20292;-78
2021/10/24 04:24:46;;;;;;;18.67;11.00;;;;;;;;;;5031593;28;20274;-78
2021/10/24 04:27:12;;;;;;;15.13;10.50;;;;;;;;;;5031519;28;20423;-78
2021/10/24 04:29:38;;;;;;;28.13;10.93;;;;;;;;;;5031673;28;20420;-78
2021/10/24 04:32:04;;;;;;;14.45;10.18;;;;;;;;;;5030961;28;20239;-78
2021/10/24 04:34:30;;;;;;;15.80;10.13;;;;;;;;;;5033048;28;20182;-78
2021/10/24 04:36:56;;;;;;;20.98;11.45;;;;;;;;;;5032840;28;20206;-78
2021/10/24 04:39:22;;;;;;;24.67;12.10;;;;;;;;;;5015233;28;20228;-78
2021/10/24 04:41:48;;;;;;;17.90;11.17;;;;;;;;;;5032234;28;20525;-78
2021/10/24 04:44:14;;;;;;;16.77;10.32;;;;;;;;;;5035079;28;20763;-77
2021/10/24 04:46:40;;;;;;;14.90;10.40;;;;;;;;;;5035335;28;20188;-78
2021/10/24 04:49:06;;;;;;;16.55;10.05;;;;;;;;;;5035407;28;20439;-78
2021/10/24 04:51:32;;;;;;;18.45;11.50;;;;;;;;;;5018352;28;20232;-78
2021/10/24 04:53:58;;;;;;;17.65;11.52;;;;;;;;;;5035169;28;20185;-78
2021/10/24 04:56:24;;;;;;;20.73;11.30;;;;;;;;;;5018568;28;20189;-75
2021/10/24 04:58:50;;;;;;;17.02;10.85;;;;;;;;;;5036401;28;20511;-78
2021/10/24 05:01:16;;;;;;;13.68;10.82;;;;;;;;;;5034688;28;20324;-79
2021/10/24 05:03:42;;;;;;;19.05;11.00;;;;;;;;;;5036213;28;20174;-78
2021/10/24 05:06:08;;;;;;;16.80;11.80;;;;;;;;;;5036133;28;20181;-78
2021/10/24 05:08:35;;;;;;;21.77;11.18;;;;;;;;;;5034834;28;20190;-78
2021/10/24 05:11:01;;;;;;;15.38;10.80;;;;;;;;;;5035822;28;20576;-78
2021/10/24 05:13:27;;;;;;;19.17;12.30;;;;;;;;;;5035843;28;20205;-78
2021/10/24 05:15:53;;;;;;;20.30;10.93;;;;;;;;;;5034781;28;20615;-79
2021/10/24 05:18:19;;;;;;;20.48;11.65;;;;;;;;;;5034545;28;20673;-78
2021/10/24 05:20:45;;;;;;;16.48;11.95;;;;;;;;;;5035748;28;20204;-79
2021/10/24 05:23:11;;;;;;;24.17;12.00;;;;;;;;;;5017652;28;20340;-78
2021/10/24 05:25:37;;;;;;;18.47;10.90;;;;;;;;;;5035965;28;20496;-78
2021/10/24 05:28:03;;;;;;;13.80;11.02;;;;;;;;;;5034511;28;20789;-78
2021/10/24 05:30:29;;;;;;;24.40;11.80;;;;;;;;;;5035638;28;20177;-78
2021/10/24 05:32:55;;;;;;;18.33;10.93;;;;;;;;;;5017544;28;20205;-79
2021/10/24 05:35:21;;;;;;;28.77;10.60;;;;;;;;;;5035505;28;20469;-79
2021/10/24 05:37:47;;;;;;;18.40;11.07;;;;;;;;;;5035571;28;20185;-78
2021/10/24 05:40:13;;;;;;;19.13;11.07;;;;;;;;;;5034273;28;20459;-79
2021/10/24 05:42:39;;;;;;;23.48;11.65;;;;;;;;;;5034938;28;20212;-79
2021/10/24 05:45:06;;;;;;;18.88;10.65;;;;;;;;;;5017799;28;20293;-78
2021/10/24 05:47:32;;;;;;;17.10;11.20;;;;;;;;;;5035464;28;20212;-79
2021/10/24 05:49:58;;;;;;;19.73;11.60;;;;;;;;;;5035277;28;20179;-79
2021/10/24 05:52:25;;;;;;;18.65;10.40;;;;;;;;;;5033797;28;20689;-78
2021/10/24 05:54:51;;;;;;;16.85;10.57;;;;;;;;;;5034041;28;20348;-79
2021/10/24 05:57:17;;;;;;;20.40;11.60;;;;;;;;;;5034117;28;20181;-78
2021/10/24 05:59:43;;;;;;;21.17;11.80;;;;;;;;;;5033866;28;20196;-78
2021/10/24 06:02:10;;;;;;;18.08;11.48;;;;;;;;;;5033477;28;20983;-78
2021/10/24 06:04:36;;;;;;;17.23;11.20;;;;;;;;;;5035032;28;20196;-78
2021/10/24 06:07:03;;;;;;;19.77;11.60;;;;;;;;;;5034975;28;20619;-78
2021/10/24 06:09:39;;;;;;;18.13;11.35;;;;;;;;;;5033726;28;20239;-78
2021/10/24 06:12:05;;;;;;;19.05;11.60;;;;;;;;;;5018425;28;20208;-78
2021/10/24 06:14:31;;;;;;;21.83;12.73;;;;;;;;;;5017127;28;20192;-79
2021/10/24 06:16:57;;;;;;;20.45;12.60;;;;;;;;;;5033432;28;20556;-79
2021/10/24 06:19:23;;;;;;;20.27;12.02;;;;;;;;;;5033486;28;20204;-78
2021/10/24 06:21:49;;;;;;;23.70;12.43;;;;;;;;;;5034326;28;20218;-78
2021/10/24 06:24:15;;;;;;;20.90;11.63;;;;;;;;;;5034622;28;20411;-76
2021/10/24 06:26:43;;;;;;;20.13;13.48;;;;;;;;;;5033556;28;20679;-77
2021/10/24 06:29:09;;;;;;;25.00;13.98;;;;;;;;;;5034537;28;20169;-78
2021/10/24 06:31:35;;;;;;;18.67;13.15;;;;;;;;;;5032942;28;20596;-76
2021/10/24 06:34:01;;;;;;;18.80;11.87;;;;;;;;;;5016916;28;20339;-78
2021/10/24 06:36:27;;;;;;;21.58;13.45;;;;;;;;;;5034410;28;20771;-79
2021/10/24 06:38:56;;;;;;;25.67;14.45;;;;;;;;;;5016806;28;20187;-78
2021/10/24 06:41:22;;;;;;;21.50;13.20;;;;;;;;;;5034085;28;20257;-79
2021/10/24 06:43:48;;;;;;;22.73;13.83;;;;;;;;;;5033323;28;20558;-79
2021/10/24 06:46:14;;;;;;;21.43;13.10;;;;;;;;;;5033086;28;20462;-78
2021/10/24 06:48:40;;;;;;;29.83;15.35;;;;;;;;;;5034238;28;20408;-78
2021/10/24 06:51:06;;;;;;;31.95;15.07;;;;;;;;;;5032272;28;20181;-79
2021/10/24 06:53:32;;;;;;;23.37;15.43;;;;;;;;;;5033020;28;20640;-78
2021/10/24 06:55:58;;;;;;;30.38;15.77;;;;;;;;;;5032933;28;20409;-78
2021/10/24 06:58:24;;;;;;;37.33;15.55;;;;;;;;;;5034050;28;20184;-78
2021/10/24 07:00:50;;;;;;;27.63;15.00;;;;;;;;;;5032728;28;20170;-78
2021/10/24 07:03:16;;;;;;;29.57;15.77;;;;;;;;;;5032309;28;20703;-78
2021/10/24 07:05:42;;;;;;;35.00;15.43;;;;;;;;;;5032377;28;20427;-78
2021/10/24 07:08:08;;;;;;;25.65;15.38;;;;;;;;;;5033902;28;20409;-78
2021/10/24 07:10:34;;;;;;;27.38;16.17;;;;;;;;;;5033831;28;20248;-79
2021/10/24 07:13:00;;;;;;;26.30;15.82;;;;;;;;;;5031823;28;20198;-79
2021/10/24 07:15:26;;;;;;;26.50;15.02;;;;;;;;;;5033612;28;20182;-78
2021/10/24 07:17:52;;;;;;;26.23;15.03;;;;;;;;;;5032327;28;20549;-79
2021/10/24 07:20:19;;;;;;;26.25;16.30;;;;;;;;;;5033596;28;20417;-78
2021/10/24 07:22:45;;;;;;;26.65;15.63;;;;;;;;;;5031990;28;20291;-78
2021/10/24 07:25:11;;;;;;;25.83;14.73;;;;;;;;;;5033442;28;20174;-75
2021/10/24 07:27:38;;;;;;;31.38;16.00;;;;;;;;;;5033437;28;20215;-77
2021/10/24 07:30:05;;;;;;;28.55;17.38;;;;;;;;;;5032369;28;20257;-78
2021/10/24 07:32:31;;;;;;;25.30;15.70;;;;;;;;;;5033303;28;20252;-78
2021/10/24 07:34:59;;;;;;;25.92;15.60;;;;;;;;;;5033688;28;20244;-76
2021/10/24 07:37:25;;;;;;;32.28;16.40;;;;;;;;;;5032052;28;20192;-78
2021/10/24 07:39:51;;;;;;;28.13;14.85;;;;;;;;;;5033400;28;20185;-76
2021/10/24 07:42:18;;;;;;;36.80;15.93;;;;;;;;;;5032872;28;20612;-77
2021/10/24 07:44:44;;;;;;;31.15;16.50;;;;;;;;;;5033305;28;20522;-78
2021/10/24 07:47:10;;;;;;;27.95;15.55;;;;;;;;;;5031943;28;20175;-78
2021/10/24 07:49:36;;;;;;;30.88;16.63;;;;;;;;;;5015559;28;20206;-78
2021/10/24 07:52:02;;;;;;;29.98;19.02;;;;;;;;;;5031818;28;20240;-77
2021/10/24 07:54:28;;;;;;;25.58;17.17;;;;;;;;;;5033324;28;20179;-78
2021/10/24 07:56:54;;;;;;;30.38;19.00;;;;;;;;;;5033247;28;20182;-76
2021/10/24 07:59:21;;;;;;;33.40;19.00;;;;;;;;;;5033208;28;20634;-77
2021/10/24 08:01:47;;;;;;;33.55;18.55;;;;;;;;;;5032619;28;20238;-80
2021/10/24 08:04:13;;;;;;;29.05;18.45;;;;;;;;;;5033198;28;20181;-77
2021/10/24 08:06:39;;;;;;;23.17;18.15;;;;;;;;;;5033214;28;20584;-76
2021/10/24 08:09:06;;;;;;;27.08;18.95;;;;;;;;;;5031826;28;20229;-76
2021/10/24 08:11:33;;;;;;;35.15;19.77;;;;;;;;;;5032495;28;20203;-80
2021/10/24 08:13:59;;;;;;;32.80;21.65;;;;;;;;;;5033248;28;20261;-79
2021/10/24 08:16:25;;;;;;;30.20;20.70;;;;;;;;;;5032994;28;20193;-79
2021/10/24 08:18:51;;;;;;;33.53;20.58;;;;;;;;;;5035054;28;20201;-78
2021/10/24 08:21:18;;;;;;;34.20;21.25;;;;;;;;;;5035361;28;20185;-78
2021/10/24 08:23:44;;;;;;;31.58;21.33;;;;;;;;;;5036866;28;20271;-77
2021/10/24 08:26:11;;;;;;;33.08;19.77;;;;;;;;;;5036978;28;20172;-81
2021/10/24 08:28:37;;;;;;;33.83;22.27;;;;;;;;;;5035796;28;20177;-79
2021/10/24 08:31:04;;;;;;;30.75;22.13;;;;;;;;;;5036532;28;20178;-80
2021/10/24 08:33:30;;;;;;;36.95;21.90;;;;;;;;;;5036793;28;20181;-78
2021/10/24 08:35:59;;;;;;;30.05;21.70;;;;;;;;;;5036493;28;20174;-80
2021/10/24 08:38:25;;;;;;;29.85;20.33;;;;;;;;;;5036727;28;20197;-82
2021/10/24 08:40:51;;;;;;;28.70;20.20;;;;;;;;;;5035463;28;20182;-80
2021/10/24 08:43:26;;;;;;;30.00;21.40;;;;;;;;;;5036610;28;20224;-80
2021/10/24 08:45:52;;;;;;;32.20;19.20;;;;;;;;;;5035601;28;20223;-80
2021/10/24 08:48:18;;;;;;;30.80;19.55;;;;;;;;;;5035641;28;20262;-79
2021/10/24 08:50:45;;;;;;;33.78;20.27;;;;;;;;;;5035496;28;20538;-80
2021/10/24 08:53:18;;;;;;;28.38;19.75;;;;;;;;;;5034776;28;20202;-80
2021/10/24 08:55:45;;;;;;;28.85;19.48;;;;;;;;;;5035273;28;20186;-80
2021/10/24 08:58:11;;;;;;;28.45;19.15;;;;;;;;;;5036428;28;20181;-81
2021/10/24 09:00:38;;;;;;;28.42;17.80;;;;;;;;;;5036361;28;20702;-78
2021/10/24 09:03:09;;;;;;;33.35;18.85;;;;;;;;;;5035964;28;20559;-81
2021/10/24 09:06:06;;;;;;;25.38;15.90;;;;;;;;;;5036283;28;20194;-80
2021/10/24 09:08:32;;;;;;;25.08;17.60;;;;;;;;;;5035844;28;20182;-79
2021/10/24 09:11:03;;;;;;;19.20;14.60;;;;;;;;;;5035951;28;20229;-77
2021/10/24 09:13:31;;;;;;;21.50;13.63;;;;;;;;;;5036185;28;20396;-80
2021/10/24 09:16:04;;;;;;;20.17;14.35;;;;;;;;;;5042534;28;20571;-81
2021/10/24 09:18:37;;;;;;;17.13;12.57;;;;;;;;;;5055849;28;20224;-81
2021/10/24 09:21:16;;;;;;;12.43;9.95;;;;;;;;;;5055812;28;20234;-79
2021/10/24 09:23:46;;;;;;;9.93;8.93;;;;;;;;;;5055816;28;20259;-79
2021/10/24 09:26:25;;;;;;;7.57;6.03;;;;;;;;;;5054438;28;20619;-77
2021/10/24 09:29:00;;;;;;;6.90;6.13;;;;;;;;;;5054421;28;20877;-78
2021/10/24 09:31:29;;;;;;;10.37;5.80;;;;;;;;;;5055271;28;20459;-78
2021/10/24 09:33:56;;;;;;;7.33;5.90;;;;;;;;;;5055708;28;20400;-76
2021/10/24 09:36:24;;;;;;;7.13;5.50;;;;;;;;;;5055879;28;20412;-75
2021/10/24 09:38:50;;;;;;;11.57;5.60;;;;;;;;;;5055931;28;20404;-75
2021/10/24 09:41:17;;;;;;;7.37;5.50;;;;;;;;;;5053663;28;20845;-78
2021/10/24 09:43:43;;;;;;;6.77;5.00;;;;;;;;;;5055602;28;20415;-76
2021/10/24 09:46:09;;;;;;;6.80;5.00;;;;;;;;;;5055492;28;20391;-78
2021/10/24 09:48:36;;;;;;;6.20;5.17;;;;;;;;;;5055346;28;20419;-79
2021/10/24 09:51:03;;;;;;;8.00;4.90;;;;;;;;;;5055123;28;20511;-75
2021/10/24 09:53:31;;;;;;;5.27;4.77;;;;;;;;;;5055228;28;20419;-74
2021/10/24 09:55:57;;;;;;;11.07;5.37;;;;;;;;;;5053864;28;20419;-77
2021/10/24 09:58:26;;;;;;;7.20;5.00;;;;;;;;;;5055156;28;20926;-74
2021/10/24 10:00:52;;;;;;;5.23;4.47;;;;;;;;;;5053924;28;20745;-76
2021/10/24 10:03:19;;;;;;;6.70;4.07;;;;;;;;;;5054685;28;20468;-77
2021/10/24 10:05:45;;;;;;;5.13;4.33;;;;;;;;;;5055032;28;20434;-78
2021/10/24 10:08:12;;;;;;;5.53;4.77;;;;;;;;;;5055027;28;20408;-76
2021/10/24 10:10:43;;;;;;;7.00;4.80;;;;;;;;;;5054764;28;20414;-79
2021/10/24 10:13:13;;;;;;;7.63;4.30;;;;;;;;;;5054644;28;20394;-79
2021/10/24 10:15:43;;;;;;;7.80;4.23;;;;;;;;;;5053561;28;20801;-80
2021/10/24 10:18:09;;;;;;;5.53;4.30;;;;;;;;;;5053465;28;20414;-74
2021/10/24 10:20:44;;;;;;;6.47;4.20;;;;;;;;;;5053239;28;20730;-76
2021/10/24 10:23:12;;;;;;;5.77;3.80;;;;;;;;;;5054262;28;20463;-77
2021/10/24 10:25:38;;;;;;;5.93;4.20;;;;;;;;;;5054577;28;20412;-77
2021/10/24 10:28:05;;;;;;;9.87;5.07;;;;;;;;;;5045655;28;20417;-77
2021/10/24 10:30:36;;;;;;;13.03;4.30;;;;;;;;;;5043177;28;20423;-74
2021/10/24 10:33:04;;;;;;;6.83;4.63;;;;;;;;;;5042917;28;20427;-78
2021/10/24 10:35:31;;;;;;;6.23;4.27;;;;;;;;;;5054674;28;20382;-74
2021/10/24 10:38:04;;;;;;;8.50;4.07;;;;;;;;;;5051209;28;20416;-73
2021/10/24 10:40:33;;;;;;;4.17;3.60;;;;;;;;;;5052402;28;20459;-78
2021/10/24 10:43:11;;;;;;;5.63;3.30;;;;;;;;;;5053675;28;20442;-76
2021/10/24 10:45:38;;;;;;;4.73;3.43;;;;;;;;;;5054263;28;20367;-77
2021/10/24 10:48:09;;;;;;;5.00;3.40;;;;;;;;;;5054299;28;20396;-76
2021/10/24 10:50:38;;;;;;;5.17;4.03;;;;;;;;;;5054270;28;20877;-77
2021/10/24 10:53:16;;;;;;;7.27;3.60;;;;;;;;;;5053621;28;20589;-76
2021/10/24 10:55:57;;;;;;;4.77;3.93;;;;;;;;;;5054319;28;20432;-76
2021/10/24 10:58:36;;;;;;;5.57;3.17;;;;;;;;;;5052886;28;20897;-77
2021/10/24 11:01:23;;;;;;;3.50;3.03;;;;;;;;;;5053732;28;20385;-79
2021/10/24 11:03:49;;;;;;;5.80;3.13;;;;;;;;;;5049599;28;20431;-79
2021/10/24 11:06:27;;;;;;;3.77;2.63;;;;;;;;;;5053896;28;20774;-76
2021/10/24 11:09:00;;;;;;;3.70;2.80;;;;;;;;;;5053607;28;20741;-79
2021/10/24 11:11:44;;;;;;;3.37;2.10;;;;;;;;;;5053516;28;20420;-77
2021/10/24 11:14:16;;;;;;;3.80;2.80;;;;;;;;;;5054022;28;20744;-79
2021/10/24 11:16:44;;;;;;;5.13;2.70;;;;;;;;;;5053749;28;20454;-78
2021/10/24 11:19:38;;;;;;;4.97;2.57;;;;;;;;;;5052356;28;20520;-78
2021/10/24 11:22:11;;;;;;;4.70;2.77;;;;;;;;;;5053341;28;20813;-79
2021/10/24 11:24:48;;;;;;;6.13;3.40;;;;;;;;;;5052507;28;20751;-78
2021/10/24 11:27:17;;;;;;;4.87;2.60;;;;;;;;;;5053487;28;20400;-80
2021/10/24 11:29:59;;;;;;;8.20;3.53;;;;;;;;;;5053533;28;20378;-77
2021/10/24 11:32:29;;;;;;;3.43;2.67;;;;;;;;;;5051757;28;20552;-77
2021/10/24 11:34:56;;;;;;;7.63;3.47;;;;;;;;;;5053602;28;20750;-77
2021/10/24 11:37:32;;;;;;;3.97;2.97;;;;;;;;;;5053336;28;20391;-77
2021/10/24 11:40:00;;;;;;;5.53;3.00;;;;;;;;;;5052222;28;20747;-77
2021/10/24 11:42:27;;;;;;;5.87;3.33;;;;;;;;;;5051695;28;20442;-77
2021/10/24 11:44:53;;;;;;;5.00;3.00;;;;;;;;;;5053759;28;20411;-79
2021/10/24 11:47:19;;;;;;;6.07;3.50;;;;;;;;;;5052448;28;20406;-79
2021/10/24 11:49:50;;;;;;;6.13;2.60;;;;;;;;;;5052203;28;20412;-78
2021/10/24 11:52:26;;;;;;;6.97;2.77;;;;;;;;;;5052034;28;20475;-80
2021/10/24 11:54:58;;;;;;;4.43;2.30;;;;;;;;;;5053441;28;20896;-78
2021/10/24 11:57:35;;;;;;;4.40;2.57;;;;;;;;;;5053079;28;20406;-81
2021/10/24 12:00:18;;;;;;;4.03;2.63;;;;;;;;;;5053179;28;20390;-79
2021/10/24 12:03:00;;;;;;;4.73;3.10;;;;;;;;;;5052652;28;20463;-77
2021/10/24 12:05:30;;;;;;;3.43;3.00;;;;;;;;;;5051812;28;20416;-80
2021/10/24 12:07:57;;;;;;;6.07;2.97;;;;;;;;;;5053282;28;20466;-76
2021/10/24 12:10:37;;;;;;;3.23;2.63;;;;;;;;;;5053322;28;20406;-80
2021/10/24 12:13:03;;;;;;;7.27;2.43;;;;;;;;;;5052848;28;20431;-77
2021/10/24 12:15:36;;;;;;;3.23;2.40;;;;;;;;;;5052999;28;20502;-80
2021/10/24 12:18:11;;;;;;;4.57;3.00;;;;;;;;;;5052885;28;20501;-79
2021/10/24 12:20:37;;;;;;;5.00;3.40;;;;;;;;;;5051775;28;20397;-78
2021/10/24 12:23:13;;;;;;;5.13;3.13;;;;;;;;;;5052723;28;20467;-79
2021/10/24 12:25:41;;;;;;;4.57;2.90;;;;;;;;;;5052827;28;20403;-79
2021/10/24 12:28:13;;;;;;;8.50;3.23;;;;;;;;;;5051465;28;20394;-80
2021/10/24 12:30:39;;;;;;;3.40;2.53;;;;;;;;;;5053154;28;20448;-78
2021/10/24 12:33:16;;;;;;;3.77;2.40;;;;;;;;;;5052815;28;20426;-78
2021/10/24 12:35:46;;;;;;;3.30;2.50;;;;;;;;;;5051916;28;20390;-81
2021/10/24 12:38:12;;;;;;;5.90;2.70;;;;;;;;;;5052944;28;20444;-80
2021/10/24 12:40:38;;;;;;;4.30;2.60;;;;;;;;;;5052035;28;20925;-77
2021/10/24 12:43:07;;;;;;;4.70;3.00;;;;;;;;;;5052988;28;20446;-80
2021/10/24 12:45:52;;;;;;;2.80;2.20;;;;;;;;;;5053167;28;20409;-80
2021/10/24 12:48:19;;;;;;;5.10;3.30;;;;;;;;;;5052823;28;20491;-80
2021/10/24 12:50:46;;;;;;;3.90;2.70;;;;;;;;;;5052819;28;20431;-79
2021/10/24 12:53:17;;;;;;;3.93;2.57;;;;;;;;;;5051526;28;20442;-81
2021/10/24 12:56:01;;;;;;;3.40;2.60;;;;;;;;;;5053353;28;20375;-79
2021/10/24 12:58:28;;;;;;;4.40;2.60;;;;;;;;;;5051278;28;20404;-77
2021/10/24 13:00:54;;;;;;;3.73;2.50;;;;;;;;;;5052473;28;20408;-79
2021/10/24 13:03:20;;;;;;;5.10;2.77;;;;;;;;;;5052937;28;20398;-78
2021/10/24 13:05:46;;;;;;;4.07;2.43;;;;;;;;;;5056047;28;20901;-78
2021/10/24 13:08:12;;;;;;;6.00;2.90;;;;;;;;;;5055009;28;20379;-79
2021/10/24 13:10:38;;;;;;;3.70;2.80;;;;;;;;;;5056186;28;20412;-80
2021/10/24 13:13:04;;;;;;;6.17;2.77;;;;;;;;;;5054408;28;20494;-79
2021/10/24 13:15:30;;;;;;;5.30;2.50;;;;;;;;;;5056019;28;20490;-80
2021/10/24 13:17:56;;;;;;;6.10;2.73;;;;;;;;;;5055792;28;20455;-79
2021/10/24 13:20:22;;;;;;;3.17;2.43;;;;;;;;;;5055886;28;20382;-78
2021/10/24 13:23:04;;;;;;;5.97;3.00;;;;;;;;;;5055556;28;20442;-78
2021/10/24 13:25:30;;;;;;;4.53;2.67;;;;;;;;;;5055956;28;20416;-78
2021/10/24 13:27:57;;;;;;;5.90;2.53;;;;;;;;;;5055707;28;20390;-77
2021/10/24 13:30:28;;;;;;;4.43;2.70;;;;;;;;;;5042257;28;20467;-81
2021/10/24 13:32:54;;;;;;;2.93;2.47;;;;;;;;;;5035500;28;20841;-81
2021/10/24 13:35:22;;;;;;;5.00;2.33;;;;;;;;;;5035775;28;20428;-79
2021/10/24 13:37:48;;;;;;;5.53;3.20;;;;;;;;;;5035751;28;20415;-77
2021/10/24 13:40:15;;;;;;;3.27;2.70;;;;;;;;;;5035500;28;20458;-78
2021/10/24 13:42:41;;;;;;;4.00;2.80;;;;;;;;;;5034030;28;20433;-78
2021/10/24 13:45:09;;;;;;;6.77;3.10;;;;;;;;;;5035563;28;20452;-81
2021/10/24 13:47:35;;;;;;;5.30;3.10;;;;;;;;;;5035478;28;20831;-78
2021/10/24 13:50:02;;;;;;;3.10;2.30;;;;;;;;;;5034083;28;20421;-79
2021/10/24 13:52:28;;;;;;;5.90;2.23;;;;;;;;;;5034830;28;20476;-78
2021/10/24 13:54:54;;;;;;;4.90;2.87;;;;;;;;;;5035487;28;20769;-80
2021/10/24 13:57:20;;;;;;;6.47;2.77;;;;;;;;;;5035441;28;20463;-79
2021/10/24 13:59:49;;;;;;;6.97;2.53;;;;;;;;;;5035360;28;20394;-81
2021/10/24 14:02:15;;;;;;;4.90;3.03;;;;;;;;;;5033407;28;20453;-77
2021/10/24 14:04:41;;;;;;;6.90;3.10;;;;;;;;;;5035190;28;20413;-78
2021/10/24 14:07:07;;;;;;;3.73;2.83;;;;;;;;;;5035169;28;20453;-80
2021/10/24 14:09:33;;;;;;;5.57;2.70;;;;;;;;;;5033894;28;20421;-80
2021/10/24 14:11:59;;;;;;;7.10;3.53;;;;;;;;;;5034548;28;20468;-77
2021/10/24 14:14:25;;;;;;;4.33;2.60;;;;;;;;;;5034433;28;20783;-77
2021/10/24 14:16:51;;;;;;;5.13;2.97;;;;;;;;;;5034371;28;20409;-79
2021/10/24 14:19:17;;;;;;;5.40;3.00;;;;;;;;;;5034878;28;20436;-77
2021/10/24 14:21:43;;;;;;;5.60;3.33;;;;;;;;;;5033173;28;20499;-76
2021/10/24 14:24:09;;;;;;;3.60;2.63;;;;;;;;;;5034744;28;20421;-79
2021/10/24 14:26:35;;;;;;;6.20;2.40;;;;;;;;;;5034646;28;20427;-76
2021/10/24 14:29:01;;;;;;;4.87;2.90;;;;;;;;;;5033546;28;20448;-77
2021/10/24 14:31:27;;;;;;;5.17;3.10;;;;;;;;;;5034220;28;20408;-80
2021/10/24 14:33:53;;;;;;;3.17;2.57;;;;;;;;;;5034612;28;20380;-80